createdAt,value
2023-01-03T00:02:18.427Z,78.67
2023-01-03T00:04:49.999Z,79.24
2023-01-03T00:07:38.257Z,78.72
2023-01-03T00:10:10.555Z,78.53
2023-01-03T00:12:42.971Z,78.17
2023-01-03T00:15:14.505Z,78.23
2023-01-03T00:17:44.267Z,78.71
2023-01-03T00:20:13.580Z,78.84
2023-01-03T00:22:44.881Z,78.47
2023-01-03T00:25:14.155Z,78.71
2023-01-03T00:27:43.195Z,78.60
2023-01-03T00:30:13.335Z,78.34
2023-01-03T00:32:47.672Z,78.79
2023-01-03T00:35:16.855Z,78.88
2023-01-03T00:37:48.440Z,78.95
2023-01-03T00:40:23.670Z,78.85
2023-01-03T00:43:10.744Z,78.89
2023-01-03T00:45:40.083Z,79.25
2023-01-03T00:48:09.372Z,78.81
2023-01-03T00:50:48.657Z,79.07
2023-01-03T00:53:24.869Z,78.57
2023-01-03T00:55:55.431Z,79.06
2023-01-03T00:58:24.554Z,78.82
2023-01-03T01:00:53.691Z,79.03
2023-01-03T01:03:29.544Z,79.32
2023-01-03T01:05:58.878Z,79.56
2023-01-03T01:08:29.988Z,79.23
2023-01-03T01:11:10.640Z,79.18
2023-01-03T01:13:42.090Z,79.26
2023-01-03T01:16:13.440Z,79.41
2023-01-03T01:18:49.867Z,79.66
2023-01-03T01:21:22.183Z,79.63
2023-01-03T01:23:54.528Z,79.42
2023-01-03T01:26:25.277Z,79.57
2023-01-03T01:28:55.652Z,79.86
2023-01-03T01:31:36.035Z,79.53
2023-01-03T01:34:05.273Z,80.16
2023-01-03T01:36:37.053Z,79.75
2023-01-03T01:39:08.622Z,79.63
2023-01-03T01:41:51.760Z,79.41
2023-01-03T01:44:48.437Z,79.45
2023-01-03T01:47:24.630Z,80.07
2023-01-03T01:50:05.403Z,80.21
2023-01-03T01:52:38.358Z,79.65
2023-01-03T01:55:16.081Z,79.49
2023-01-03T01:57:46.562Z,79.65
2023-01-03T02:00:16.835Z,79.83
2023-01-03T02:02:50.050Z,79.51
2023-01-03T02:05:21.127Z,79.66
2023-01-03T02:07:51.866Z,79.70
2023-01-03T02:10:33.036Z,79.29
2023-01-03T02:13:10.935Z,78.99
2023-01-03T02:15:51.019Z,78.79
2023-01-03T02:18:48.996Z,78.65
2023-01-03T02:24:50.556Z,78.28
2023-01-03T02:27:48.229Z,78.34
2023-01-03T02:30:36.805Z,78.18
2023-01-03T02:33:19.999Z,78.41
2023-01-03T02:36:07.384Z,78.18
2023-01-03T02:38:47.618Z,78.15
2023-01-03T02:41:26.235Z,78.33
2023-01-03T02:44:00.990Z,78.33
2023-01-03T02:46:44.172Z,77.82
2023-01-03T02:49:29.757Z,78.36
2023-01-03T02:52:03.432Z,78.25
2023-01-03T02:54:42.160Z,77.91
2023-01-03T02:57:15.148Z,77.63
2023-01-03T03:02:45.495Z,77.45
2023-01-03T03:05:19.836Z,77.22
2023-01-03T03:07:49.487Z,76.92
2023-01-03T03:10:31.913Z,76.81
2023-01-03T03:13:15.565Z,76.96
2023-01-03T03:15:52.108Z,77.63
2023-01-03T03:18:31.944Z,77.82
2023-01-03T03:21:16.337Z,77.86
2023-01-03T03:24:02.046Z,78.53
2023-01-03T03:26:38.056Z,79.30
2023-01-03T03:29:16.214Z,80.20
2023-01-03T03:31:50.270Z,80.58
2023-01-03T03:34:26.340Z,81.79
2023-01-03T03:36:58.887Z,82.35
2023-01-03T03:39:42.729Z,82.44
2023-01-03T03:42:40.911Z,84.06
2023-01-03T03:45:17.928Z,83.84
2023-01-03T03:47:52.896Z,84.57
2023-01-03T03:50:29.570Z,85.71
2023-01-03T03:53:07.689Z,85.37
2023-01-03T03:55:41.229Z,86.71
2023-01-03T03:58:19.868Z,87.23
2023-01-03T04:00:53.097Z,87.67
2023-01-03T04:03:25.527Z,88.24
2023-01-03T04:06:10.542Z,90.26
2023-01-03T04:08:39.819Z,89.09
2023-01-03T04:11:09.130Z,89.72
2023-01-03T04:13:49.605Z,90.08
2023-01-03T04:16:18.745Z,91.01
2023-01-03T04:18:47.837Z,90.66
2023-01-03T04:21:24.026Z,91.47
2023-01-03T04:23:57.267Z,91.27
2023-01-03T04:26:26.505Z,91.31
2023-01-03T04:28:56.686Z,92.07
2023-01-03T04:31:31.304Z,92.30
2023-01-03T04:34:00.603Z,92.30
2023-01-03T04:36:31.677Z,92.83
2023-01-03T04:39:01.984Z,93.05
2023-01-03T04:41:31.236Z,92.97
2023-01-03T04:44:04.371Z,93.35
2023-01-03T04:46:35.676Z,94.01
2023-01-03T04:49:07.003Z,93.75
2023-01-03T04:51:39.194Z,94.65
2023-01-03T04:54:09.615Z,93.92
2023-01-03T04:56:40.034Z,94.38
2023-01-03T04:59:09.253Z,94.07
2023-01-03T05:01:38.455Z,93.97
2023-01-03T05:04:08.105Z,94.70
2023-01-03T05:09:14.630Z,94.77
2023-01-03T05:11:43.729Z,95.46
2023-01-03T05:14:17.981Z,95.70
2023-01-03T05:16:48.403Z,95.29
2023-01-03T05:19:17.564Z,95.85
2023-01-03T05:22:01.659Z,95.80
2023-01-03T05:24:43.893Z,95.82
2023-01-03T05:27:13.556Z,95.81
2023-01-03T05:29:43.689Z,96.39
2023-01-03T05:32:18.215Z,96.79
2023-01-03T05:34:47.315Z,96.95
2023-01-03T05:37:19.095Z,96.86
2023-01-03T05:42:23.634Z,97.07
2023-01-03T05:44:52.825Z,97.50
2023-01-03T05:47:22.077Z,97.60
2023-01-03T05:49:58.379Z,97.62
2023-01-03T05:52:29.676Z,98.14
2023-01-03T05:54:58.927Z,97.80
2023-01-03T05:57:33.426Z,98.09
2023-01-03T06:00:05.458Z,97.66
2023-01-03T06:02:35.809Z,98.04
2023-01-03T06:05:04.980Z,97.61
2023-01-03T06:07:41.177Z,98.24
2023-01-03T06:10:16.206Z,97.79
2023-01-03T06:12:45.472Z,98.21
2023-01-03T06:15:14.537Z,97.79
2023-01-03T06:18:02.032Z,98.27
2023-01-03T06:20:32.475Z,97.96
2023-01-03T06:23:10.052Z,98.19
2023-01-03T06:25:44.214Z,97.61
2023-01-03T06:28:13.348Z,98.51
2023-01-03T06:30:43.741Z,99.09
2023-01-03T06:33:13.124Z,98.97
2023-01-03T06:35:53.073Z,99.19
2023-01-03T06:38:24.221Z,99.55
2023-01-03T06:40:53.392Z,99.36
2023-01-03T06:46:17.596Z,99.48
2023-01-03T06:48:59.794Z,100.00
2023-01-03T06:51:42.309Z,100.00
2023-01-03T06:54:20.643Z,100.00
2023-01-03T06:56:50.520Z,100.00
2023-01-03T06:59:21.569Z,100.00
2023-01-03T07:01:57.056Z,100.00
2023-01-03T07:04:28.635Z,100.00
2023-01-03T07:06:58.065Z,100.00
2023-01-03T07:09:29.084Z,100.00
2023-01-03T07:12:18.345Z,100.00
2023-01-03T07:14:45.662Z,100.00
2023-01-03T07:17:16.206Z,100.00
2023-01-03T07:19:46.593Z,100.00
2023-01-03T07:22:15.828Z,100.00
2023-01-03T07:24:46.884Z,100.00
2023-01-03T07:27:21.182Z,100.00
2023-01-03T07:29:50.418Z,100.00
2023-01-03T07:32:19.596Z,100.00
2023-01-03T07:34:48.696Z,100.00
2023-01-03T07:37:20.409Z,100.00
2023-01-03T07:39:52.072Z,100.00
2023-01-03T07:42:44.188Z,100.00
2023-01-03T07:45:13.627Z,100.00
2023-01-03T07:47:51.081Z,100.00
2023-01-03T07:50:20.305Z,99.96
2023-01-03T07:52:49.518Z,100.00
2023-01-03T07:55:21.155Z,99.59
2023-01-03T07:57:50.321Z,99.77
2023-01-03T08:00:19.872Z,100.00
2023-01-03T08:02:50.080Z,99.61
2023-01-03T08:05:19.543Z,99.76
2023-01-03T08:10:48.423Z,100.00
2023-01-03T08:13:20.526Z,100.00
2023-01-03T08:15:51.773Z,100.00
2023-01-03T08:18:27.958Z,100.00
2023-01-03T08:21:02.546Z,100.00
2023-01-03T08:23:31.908Z,100.00
2023-01-03T08:26:08.892Z,99.98
2023-01-03T08:28:43.614Z,100.00
2023-01-03T08:31:20.344Z,100.00
2023-01-03T08:33:54.818Z,100.00
2023-01-03T08:36:25.820Z,100.00
2023-01-03T08:38:59.688Z,100.00
2023-01-03T08:41:33.664Z,100.00
2023-01-03T08:44:05.190Z,100.00
2023-01-03T08:46:35.513Z,100.00
2023-01-03T08:49:04.828Z,100.00
2023-01-03T08:51:34.433Z,100.00
2023-01-03T08:54:03.699Z,100.00
2023-01-03T08:56:35.327Z,100.00
2023-01-03T08:59:04.808Z,100.00
2023-01-03T09:01:34.472Z,100.00
2023-01-03T09:04:04.967Z,100.00
2023-01-03T09:06:34.500Z,100.00
2023-01-03T09:09:06.495Z,100.00
2023-01-03T09:11:37.723Z,100.00
2023-01-03T09:14:07.003Z,100.00
2023-01-03T09:16:36.307Z,100.00
2023-01-03T09:19:05.560Z,100.00
2023-01-03T09:21:34.666Z,100.00
2023-01-03T09:24:10.492Z,100.00
2023-01-03T09:26:41.761Z,100.00
2023-01-03T09:29:16.005Z,100.00
2023-01-03T09:31:45.956Z,100.00
2023-01-03T09:34:15.444Z,100.00
2023-01-03T09:36:47.214Z,100.00
2023-01-03T09:39:16.342Z,100.00
2023-01-03T09:42:07.698Z,100.00
2023-01-03T09:44:37.069Z,100.00
2023-01-03T09:47:06.531Z,100.00
2023-01-03T09:50:18.381Z,100.00
2023-01-03T09:52:49.070Z,100.00
2023-01-03T09:55:40.685Z,100.00
2023-01-03T09:58:29.165Z,100.00
2023-01-03T10:01:15.748Z,100.00
2023-01-03T10:04:00.193Z,100.00
2023-01-03T10:06:42.233Z,100.00
2023-01-03T10:09:25.082Z,100.00
2023-01-03T10:12:05.750Z,100.00
2023-01-03T10:14:53.421Z,100.00
2023-01-03T10:17:30.021Z,100.00
2023-01-03T10:20:11.204Z,100.00
2023-01-03T10:22:41.792Z,100.00
2023-01-03T10:25:14.345Z,100.00
2023-01-03T10:30:56.560Z,100.00
2023-01-03T10:33:39.787Z,100.00
2023-01-03T10:36:09.843Z,100.00
2023-01-03T10:38:46.232Z,100.00
2023-01-03T10:41:33.448Z,100.00
2023-01-03T10:44:09.801Z,100.00
2023-01-03T10:46:53.030Z,100.00
2023-01-03T10:49:27.754Z,100.00
2023-01-03T10:52:06.304Z,100.00
2023-01-03T10:54:50.143Z,100.00
2023-01-03T10:57:43.054Z,100.00
2023-01-03T11:00:33.058Z,100.00
2023-01-03T11:03:19.639Z,100.00
2023-01-03T11:08:44.038Z,100.00
2023-01-03T11:11:35.134Z,100.00
2023-01-03T11:14:18.634Z,100.00
2023-01-03T11:16:56.112Z,100.00
2023-01-03T11:19:30.569Z,100.00
2023-01-03T11:22:12.971Z,100.00
2023-01-03T11:24:55.795Z,100.00
2023-01-03T11:27:36.795Z,100.00
2023-01-03T11:30:18.613Z,100.00
2023-01-03T11:33:04.127Z,100.00
2023-01-03T11:35:54.584Z,100.00
2023-01-03T11:38:51.543Z,100.00
2023-01-03T11:41:39.864Z,100.00
2023-01-03T11:44:45.311Z,100.00
2023-01-03T11:47:27.705Z,100.00
2023-01-03T11:50:15.477Z,100.00
2023-01-03T11:52:52.461Z,100.00
2023-01-03T11:55:44.140Z,100.00
2023-01-03T11:58:35.372Z,100.00
2023-01-03T12:01:13.782Z,100.00
2023-01-03T12:04:00.742Z,100.00
2023-01-03T12:06:36.395Z,100.00
2023-01-03T12:09:22.187Z,100.00
2023-01-03T12:12:19.520Z,100.00
2023-01-03T12:14:53.572Z,100.00
2023-01-03T12:17:27.763Z,100.00
2023-01-03T12:20:07.957Z,100.00
2023-01-03T12:22:39.753Z,100.00
2023-01-03T12:25:22.262Z,100.00
2023-01-03T12:27:54.944Z,100.00
2023-01-03T12:30:37.113Z,100.00
2023-01-03T12:33:23.597Z,100.00
2023-01-03T12:38:52.430Z,100.00
2023-01-03T12:41:29.239Z,100.00
2023-01-03T12:44:04.907Z,100.00
2023-01-03T12:46:49.927Z,100.00
2023-01-03T12:54:40.737Z,100.00
2023-01-03T12:57:44.755Z,100.00
2023-01-03T13:00:39.438Z,100.00
2023-01-03T13:03:17.218Z,100.00
2023-01-03T13:05:51.317Z,100.00
2023-01-03T13:08:31.273Z,100.00
2023-01-03T13:11:07.223Z,100.00
2023-01-03T13:13:37.432Z,100.00
2023-01-03T13:16:36.283Z,100.00
2023-01-03T13:19:41.612Z,100.00
2023-01-03T13:25:32.532Z,100.00
2023-01-03T13:28:13.768Z,100.00
2023-01-03T13:30:43.175Z,100.00
2023-01-03T13:33:25.889Z,100.00
2023-01-03T13:36:01.743Z,100.00
2023-01-03T13:38:37.027Z,100.00
2023-01-03T13:41:31.683Z,100.00
2023-01-03T13:44:10.639Z,100.00
2023-01-03T13:46:43.891Z,100.00
2023-01-03T13:52:04.990Z,100.00
2023-01-03T13:54:58.929Z,100.00
2023-01-03T13:57:37.464Z,100.00
2023-01-03T14:00:19.573Z,100.00
2023-01-03T14:03:29.281Z,100.00
2023-01-03T14:06:38.395Z,100.00
2023-01-03T14:09:30.358Z,100.00
2023-01-03T14:15:25.826Z,100.00
2023-01-03T14:18:00.545Z,100.00
2023-01-03T14:20:33.960Z,100.00
2023-01-03T14:23:48.912Z,100.00
2023-01-03T14:28:57.941Z,100.00
2023-01-03T14:31:34.828Z,100.00
2023-01-03T14:36:51.342Z,100.00
2023-01-03T14:42:02.299Z,100.00
2023-01-03T14:44:31.894Z,100.00
2023-01-03T14:49:49.703Z,100.00
2023-01-03T14:52:23.889Z,100.00
2023-01-03T14:55:01.581Z,100.00
2023-01-03T14:57:34.183Z,100.00
2023-01-03T15:00:07.229Z,100.00
2023-01-03T15:02:41.099Z,100.00
2023-01-03T15:05:28.883Z,100.00
2023-01-03T15:08:09.115Z,100.00
2023-01-03T15:10:45.437Z,100.00
2023-01-03T15:16:22.143Z,100.00
2023-01-03T15:19:03.787Z,100.00
2023-01-03T15:21:33.251Z,100.00
2023-01-03T15:24:03.031Z,100.00
2023-01-03T15:26:40.951Z,100.00
2023-01-03T15:29:20.540Z,100.00
2023-01-03T15:31:53.377Z,100.00
2023-01-03T15:34:28.642Z,100.00
2023-01-03T15:37:01.289Z,100.00
2023-01-03T15:39:38.455Z,100.00
2023-01-03T15:42:44.153Z,100.00
2023-01-03T15:45:21.242Z,100.00
2023-01-03T15:47:55.303Z,100.00
2023-01-03T15:50:42.086Z,100.00
2023-01-03T15:53:22.928Z,100.00
2023-01-03T15:55:54.345Z,100.00
2023-01-03T15:58:26.134Z,100.00
2023-01-03T16:00:55.686Z,100.00
2023-01-03T16:03:26.569Z,100.00
2023-01-03T16:05:58.095Z,100.00
2023-01-03T16:11:19.465Z,100.00
2023-01-03T16:13:53.067Z,100.00
2023-01-03T16:16:26.191Z,100.00
2023-01-03T16:18:57.200Z,100.00
2023-01-03T16:21:30.593Z,100.00
2023-01-03T16:24:05.051Z,100.00
2023-01-03T16:26:34.475Z,100.00
2023-01-03T16:29:03.648Z,100.00
2023-01-03T16:31:34.708Z,100.00
2023-01-03T16:34:06.081Z,100.00
2023-01-03T16:36:39.305Z,100.00
2023-01-03T16:39:15.034Z,100.00
2023-01-03T16:44:53.896Z,100.00
2023-01-03T16:47:25.993Z,100.00
2023-01-03T16:50:00.287Z,100.00
2023-01-03T16:52:36.338Z,100.00
2023-01-03T16:55:18.983Z,100.00
2023-01-03T16:57:53.878Z,100.00
2023-01-03T17:00:26.481Z,100.00
2023-01-03T17:02:58.994Z,100.00
2023-01-03T17:05:28.854Z,100.00
2023-01-03T17:08:05.667Z,100.00
2023-01-03T17:10:38.746Z,100.00
2023-01-03T17:13:12.873Z,100.00
2023-01-03T17:15:42.766Z,100.00
2023-01-03T17:18:20.557Z,100.00
2023-01-03T17:20:54.356Z,100.00
2023-01-03T17:23:31.530Z,100.00
2023-01-03T17:26:00.886Z,100.00
2023-01-03T17:28:31.280Z,100.00
2023-01-03T17:31:00.672Z,100.00
2023-01-03T17:33:34.112Z,100.00
2023-01-03T17:36:03.879Z,100.00
2023-01-03T17:38:36.306Z,100.00
2023-01-03T17:41:05.601Z,100.00
2023-01-03T17:43:35.029Z,100.00
2023-01-03T17:46:24.069Z,100.00
2023-01-03T17:49:06.443Z,100.00
2023-01-03T17:51:35.427Z,100.00
2023-01-03T17:54:06.688Z,99.75
2023-01-03T17:56:36.992Z,100.00
2023-01-03T17:59:06.598Z,100.00
2023-01-03T18:01:35.966Z,100.00
2023-01-03T18:04:05.697Z,100.00
2023-01-03T18:06:35.384Z,100.00
2023-01-03T18:09:09.521Z,100.00
2023-01-03T18:11:38.791Z,100.00
2023-01-03T18:14:08.052Z,100.00
2023-01-03T18:16:37.435Z,100.00
2023-01-03T18:19:07.244Z,100.00
2023-01-03T18:21:37.869Z,100.00
2023-01-03T18:24:18.357Z,100.00
2023-01-03T18:26:51.226Z,100.00
2023-01-03T18:29:20.733Z,100.00
2023-01-03T18:31:50.033Z,100.00
2023-01-03T18:34:24.325Z,100.00
2023-01-03T18:36:54.387Z,100.00
2023-01-03T18:39:28.967Z,100.00
2023-01-03T18:42:19.864Z,100.00
2023-01-03T18:44:54.174Z,100.00
2023-01-03T18:47:23.586Z,100.00
2023-01-03T18:49:52.834Z,100.00
2023-01-03T18:52:26.310Z,100.00
2023-01-03T18:54:58.603Z,100.00
2023-01-03T18:57:28.170Z,100.00
2023-01-03T19:00:02.235Z,100.00
2023-01-03T19:02:39.195Z,99.69
2023-01-03T19:05:09.176Z,100.00
2023-01-03T19:07:40.823Z,99.95
2023-01-03T19:10:21.655Z,100.00
2023-01-03T19:12:52.192Z,100.00
2023-01-03T19:15:24.055Z,100.00
2023-01-03T19:17:54.388Z,100.00
2023-01-03T19:20:29.279Z,100.00
2023-01-03T19:22:58.579Z,100.00
2023-01-03T19:25:32.037Z,100.00
2023-01-03T19:28:03.653Z,100.00
2023-01-03T19:33:21.369Z,99.76
2023-01-03T19:35:51.306Z,99.59
2023-01-03T19:38:25.886Z,99.53
2023-01-03T19:40:57.117Z,99.67
2023-01-03T19:43:26.332Z,99.73
2023-01-03T19:45:55.464Z,100.00
2023-01-03T19:48:27.319Z,99.92
2023-01-03T19:50:56.429Z,100.00
2023-01-03T19:53:25.942Z,99.51
2023-01-03T19:55:57.223Z,99.65
2023-01-03T19:58:28.933Z,99.48
2023-01-03T20:00:59.079Z,100.00
2023-01-03T20:03:31.686Z,99.73
2023-01-03T20:06:01.555Z,99.78
2023-01-03T20:08:30.734Z,99.62
2023-01-03T20:11:22.146Z,99.75
2023-01-03T20:13:51.678Z,99.03
2023-01-03T20:16:23.222Z,98.33
2023-01-03T20:18:52.553Z,98.05
2023-01-03T20:21:25.186Z,97.89
2023-01-03T20:23:56.415Z,97.87
2023-01-03T20:26:30.571Z,97.60
2023-01-03T20:29:00.983Z,97.18
2023-01-03T20:31:30.724Z,97.08
2023-01-03T20:34:00.645Z,96.82
2023-01-03T20:36:39.702Z,97.02
2023-01-03T20:39:25.301Z,97.10
2023-01-03T20:42:06.950Z,96.86
2023-01-03T20:44:36.127Z,96.78
2023-01-03T20:47:06.483Z,96.99
2023-01-03T20:49:41.775Z,97.30
2023-01-03T20:52:16.759Z,97.21
2023-01-03T20:54:49.027Z,98.00
2023-01-03T20:57:21.504Z,97.90
2023-01-03T20:59:55.778Z,98.11
2023-01-03T21:02:25.172Z,98.15
2023-01-03T21:04:54.489Z,97.53
2023-01-03T21:07:49.857Z,97.64
2023-01-03T21:10:24.423Z,97.07
2023-01-03T21:12:55.961Z,96.96
2023-01-03T21:15:25.263Z,96.98
2023-01-03T21:17:54.297Z,96.82
2023-01-03T21:20:30.430Z,96.57
2023-01-03T21:22:59.912Z,95.87
2023-01-03T21:25:32.385Z,95.91
2023-01-03T21:28:04.838Z,96.37
2023-01-03T21:30:47.067Z,96.20
2023-01-03T21:33:19.183Z,96.21
2023-01-03T21:35:48.434Z,96.04
2023-01-03T21:38:18.072Z,96.29
2023-01-03T21:40:52.466Z,95.58
2023-01-03T21:43:23.515Z,95.42
2023-01-03T21:45:55.845Z,95.10
2023-01-03T21:48:25.070Z,94.72
2023-01-03T21:50:59.192Z,94.76
2023-01-03T21:53:40.650Z,95.16
2023-01-03T21:56:10.687Z,95.57
2023-01-03T21:58:46.962Z,94.52
2023-01-03T22:01:19.327Z,94.40
2023-01-03T22:04:01.624Z,94.98
2023-01-03T22:06:31.182Z,94.55
2023-01-03T22:09:26.533Z,94.76
2023-01-03T22:14:37.500Z,95.15
2023-01-03T22:17:06.822Z,95.37
2023-01-03T22:19:36.276Z,95.86
2023-01-03T22:24:54.438Z,93.64
2023-01-03T22:27:23.548Z,93.24
2023-01-03T22:32:43.986Z,93.88
2023-01-03T22:35:19.759Z,93.65
2023-01-03T22:37:48.976Z,93.70
2023-01-03T22:40:19.159Z,94.38
2023-01-03T22:42:48.395Z,94.39
2023-01-03T22:45:19.578Z,92.46
2023-01-03T22:47:59.415Z,92.76
2023-01-03T22:50:28.881Z,92.35
2023-01-03T22:52:58.391Z,92.47
2023-01-03T22:55:32.042Z,92.78
2023-01-03T22:58:01.763Z,92.99
2023-01-03T23:00:32.879Z,93.12
2023-01-03T23:05:38.386Z,92.87
2023-01-03T23:08:12.525Z,92.56
2023-01-03T23:10:41.744Z,92.56
2023-01-03T23:13:08.901Z,92.73
2023-01-03T23:15:40.216Z,92.21
2023-01-03T23:18:14.444Z,92.97
2023-01-03T23:20:48.313Z,93.06
2023-01-03T23:25:57.537Z,93.15
2023-01-03T23:31:24.598Z,94.28
2023-01-03T23:33:56.182Z,95.01
2023-01-03T23:36:25.748Z,94.86
2023-01-03T23:38:55.591Z,95.47
2023-01-03T23:41:36.242Z,96.09
2023-01-03T23:44:05.621Z,96.59
2023-01-03T23:46:37.315Z,97.26
2023-01-03T23:49:06.796Z,97.44
2023-01-03T23:51:41.218Z,97.70
2023-01-03T23:56:54.568Z,97.46
